Casper, WY

3:22 AM MDT on August 20, 2014 (GMT -0600)
Natrona County International | Change Station
CLOSE
Current Station
Airport
Location: Casper,
Elevation: 5289 ft
Nearby Weather Stations

Elev 5289 ft 42.90 °N, 106.47 °W | Updated 29 minutes ago

Partly Cloudy
Partly Cloudy
64 °F
Feels Like 64 °F
N
5
Wind Variable Wind from SW

Today
High -- | Low -- °F
--% Chance of Precip.
Yesterday
High -- | Low -- °F
Precip. -- in
6:16 AM 7:59 PM
Waning Crescent, 23% visible
Pressure 29.66 in
Visibility 10.0 miles
Clouds Few 10000 ft
Dew Point 49 °F
Humidity 58%
Rainfall 0.00 in
Snow Depth Not available.
UV 0 out of 12
Pollen 9.10 out of 12
Air Quality Not available.
Flu Activity Not available.
METAR KCPR 200853Z AUTO 23004KT 10SM FEW100 18/09 A2988 RMK AO2 SLP044 T01780094 55004

More Conditions Fewer Conditions

Pressure 29.66 in
Visibility 10.0 miles
Clouds Few 10000 ft
Dew Point 49 °F
Humidity 58%
Rainfall 0.00 in
Snow Depth Not available.
UV 0 out of 12
Pollen 9.10 out of 12
Air Quality Not available.
Flu Activity Not available.
METAR KCPR 200853Z AUTO 23004KT 10SM FEW100 18/09 A2988 RMK AO2 SLP044 T01780094 55004

More Conditions Fewer Conditions

10-Day Weather Forecast

Almanac

Astronomy

Aug. 20, 2014 Rise Set
Actual Time 6:16 AM MDT 7:59 PM MDT
Civil Twilight 5:46 AM MDT 8:29 PM MDT
Nautical Twilight 5:10 AM MDT 9:05 PM MDT
Astronomical Twilight 4:30 AM MDT 9:44 PM MDT
Moon 1:56 AM MDT 4:49 PM MDT
Length of Visible Light 14h 42m
Length of Day
13h 42m
Tomorrow will be 2m 40s shorter.
Waning Crescent, 23% of the Moon is Illuminated
Today
Waning Crescent
Aug 25
New
Sep 2
First Quarter
Sep 8
Full
Sep 15
Last Quarter

Today's Extremes

State Highs State Lows

Community

WunderPhotos

Upload Photos

1,745,604 photos uploaded!

Nearby

Snow Depth

Station Depth Elevation
Casper Mountain 0 in 7850 ft
Middle Powder 0 in 7760 ft
Brooklyn Lake 0 in 10220 ft
Hansen Sawmill 0 in 8360 ft
Cinnabar Park 0 in 9690 ft

Earthquake Activity

City Distance Mag. Time & Date
No recent earthquake activity has been reported nearby.
Minimum magnitude displayed is 2.5.

Coastal Water Temperatures

Place Temperature
No Stations Reporting

Nearby Weather Stations